Time;durP1;ratioP1;P1;durP2;ratioP2;P2;SDS_P1;SDS_P2;PMS_P1;PMS_P2;Temp;Humidity;BMP_temperature;BMP_pressure;BME280_temperature;BME280_humidity;BME280_pressure;Samples;Min_cycle;Max_cycle;Signal;HPM_P1;HPM_P2
2023/09/02 05:32:19;;;;;;;;;;;;;;;20.91;60.26;97110.38;4221532;27;10237;-65
2023/09/02 05:34:22;;;;;;;;;;;;;;;21.20;59.58;97120.94;4217599;28;6314;-65
2023/09/02 05:36:25;;;;;;;;;;;;;;;21.40;59.12;97112.28;4229969;28;5772;-65
2023/09/02 05:38:28;;;;;;;;;;;;;;;21.60;58.82;97120.53;4220149;28;5695;-64
2023/09/02 05:40:30;;;;;;;;;;;;;;;21.75;58.48;97128.75;4224316;28;5069;-66
2023/09/02 05:42:33;;;;;;;;;;;;;;;21.89;58.04;97129.13;4227840;28;5756;-65
2023/09/02 05:44:37;;;;;;;;;;;;;;;21.98;58.00;97122.22;4224698;28;5932;-65
2023/09/02 05:46:40;;;;;;;;;;;;;;;22.07;58.01;97127.94;4225604;28;5841;-66
2023/09/02 05:48:44;;;;;;;;;;;;;;;22.16;57.41;97133.66;4226650;28;5640;-65
2023/09/02 05:50:47;;;;;;;;;;;;;;;22.22;57.67;97132.66;4226274;28;5620;-65
2023/09/02 05:52:50;;;;;;;;;;;;;;;22.27;57.01;97132.66;4225069;28;5628;-65
2023/09/02 05:54:53;;;;;;;;;;;;;;;22.32;56.92;97143.50;4218247;28;5612;-67
2023/09/02 05:56:54;;;;;;;;;;;;;;;22.37;57.04;97146.19;4223977;28;5785;-65
2023/09/02 05:58:57;;;;;;;;;;;;;;;22.41;56.93;97151.88;4221103;28;5833;-65
2023/09/02 06:01:04;;;;;;;;;;;;;;;22.45;56.81;97145.72;4221870;28;5687;-66
2023/09/02 06:03:06;;;;;;;;;;;;;;;22.48;56.82;97150.59;4229417;28;5652;-65
2023/09/02 06:05:10;;;;;;;;;;;;;;;22.51;56.68;97154.63;4222551;28;5639;-65
2023/09/02 06:07:13;;;;;;;;;;;;;;;22.52;56.22;97143.59;4229299;28;6153;-65
2023/09/02 06:09:16;;;;;;;;;;;;;;;22.53;56.19;97155.97;4230065;28;5696;-64
2023/09/02 06:11:18;;;;;;;;;;;;;;;22.56;56.09;97154.69;4212910;28;5922;-65
2023/09/02 06:13:21;;;;;;;;;;;;;;;22.58;56.04;97153.34;4221718;28;5104;-66
2023/09/02 06:15:24;;;;;;;;;;;;;;;22.59;56.24;97157.66;4221438;28;5768;-65
2023/09/02 06:17:30;;;;;;;;;;;;;;;22.61;56.50;97158.19;4214673;28;5612;-65
2023/09/02 06:19:33;;;;;;;;;;;;;;;22.63;56.41;97158.75;4227484;28;5749;-65
2023/09/02 06:21:37;;;;;;;;;;;;;;;22.67;56.03;97157.16;4222788;28;5784;-65
2023/09/02 06:23:42;;;;;;;;;;;;;;;22.70;56.01;97165.78;4221323;28;5077;-65
2023/09/02 06:25:45;;;;;;;;;;;;;;;22.73;55.92;97170.66;4225567;28;5735;-66
2023/09/02 06:27:48;;;;;;;;;;;;;;;22.75;55.85;97176.59;4221327;28;5826;-66
2023/09/02 06:29:51;;;;;;;;;;;;;;;22.77;56.23;97174.47;4225856;28;5703;-65
2023/09/02 06:31:53;;;;;;;;;;;;;;;22.79;55.81;97178.53;4220597;28;5227;-65
2023/09/02 06:33:56;;;;;;;;;;;;;;;22.83;56.12;97187.72;4201737;28;5640;-65
2023/09/02 06:35:58;;;;;;;;;;;;;;;22.83;55.76;97176.09;4216142;28;5711;-65
2023/09/02 06:38:03;;;;;;;;;;;;;;;22.83;55.91;97184.19;4209665;28;5833;-65
2023/09/02 06:40:07;;;;;;;;;;;;;;;22.87;55.79;97190.69;4218219;28;5734;-65
2023/09/02 06:42:10;;;;;;;;;;;;;;;22.89;55.48;97183.19;4218151;28;5601;-65
2023/09/02 06:44:13;;;;;;;;;;;;;;;22.90;55.53;97187.50;4217625;28;5624;-66
2023/09/02 06:46:17;;;;;;;;;;;;;;;22.90;55.43;97182.09;4210161;28;5661;-66
2023/09/02 06:48:19;;;;;;;;;;;;;;;22.90;55.57;97185.63;4210103;28;5759;-65
2023/09/02 06:50:22;;;;;;;;;;;;;;;22.91;55.91;97198.03;4208758;28;5782;-66
2023/09/02 06:52:24;;;;;;;;;;;;;;;22.92;55.49;97202.34;4209804;28;5609;-65
2023/09/02 06:54:29;;;;;;;;;;;;;;;22.94;55.50;97199.38;4209812;28;5644;-65
2023/09/02 06:56:32;;;;;;;;;;;;;;;22.95;55.64;97190.22;4202311;28;5764;-66
2023/09/02 06:58:35;;;;;;;;;;;;;;;22.94;55.62;97183.19;4212482;28;5898;-65
2023/09/02 07:00:38;;;;;;;;;;;;;;;22.93;55.70;97189.66;4209755;28;5614;-65
2023/09/02 07:02:40;;;;;;;;;;;;;;;22.94;55.72;97188.59;4209618;28;5683;-65
2023/09/02 07:04:43;;;;;;;;;;;;;;;22.95;55.72;97193.72;4214067;28;5793;-65
2023/09/02 07:06:45;;;;;;;;;;;;;;;22.97;55.63;97203.41;4200920;28;5857;-65
2023/09/02 07:08:48;;;;;;;;;;;;;;;22.98;55.75;97200.47;4201363;28;5679;-66
2023/09/02 07:10:52;;;;;;;;;;;;;;;22.97;55.85;97204.22;4209392;28;5710;-66
2023/09/02 07:12:55;;;;;;;;;;;;;;;22.97;55.39;97206.94;4206715;28;5789;-63
2023/09/02 07:14:58;;;;;;;;;;;;;;;22.99;55.84;97212.06;4217535;28;5828;-64
2023/09/02 07:17:01;;;;;;;;;;;;;;;23.00;55.67;97211.81;4211243;28;6408;-65
2023/09/02 07:19:04;;;;;;;;;;;;;;;23.02;55.44;97216.94;4200838;28;5687;-65
2023/09/02 07:21:08;;;;;;;;;;;;;;;23.03;55.33;97221.25;4215305;28;5653;-64
2023/09/02 07:23:10;;;;;;;;;;;;;;;23.05;55.78;97217.22;4207403;28;5738;-65
2023/09/02 07:25:12;;;;;;;;;;;;;;;23.07;55.58;97214.25;4201006;28;5691;-65
2023/09/02 07:27:17;;;;;;;;;;;;;;;23.09;55.51;97212.09;4207856;28;5785;-65
2023/09/02 07:29:19;;;;;;;;;;;;;;;23.10;55.68;97209.13;4210111;28;5856;-65
2023/09/02 07:31:22;;;;;;;;;;;;;;;23.12;55.64;97211.59;4205400;28;6588;-65
2023/09/02 07:33:25;;;;;;;;;;;;;;;23.14;55.42;97220.25;4217608;28;5621;-65
2023/09/02 07:35:28;;;;;;;;;;;;;;;23.13;55.48;97219.44;4214111;28;6037;-65
2023/09/02 07:37:31;;;;;;;;;;;;;;;23.10;55.22;97214.53;4205624;28;5861;-65
2023/09/02 07:39:34;;;;;;;;;;;;;;;23.11;55.28;97218.88;4200290;28;5189;-66
2023/09/02 07:41:37;;;;;;;;;;;;;;;23.13;54.83;97211.34;4205909;28;5594;-65
2023/09/02 07:43:40;;;;;;;;;;;;;;;23.14;55.26;97209.44;4214670;28;5658;-65
2023/09/02 07:45:44;;;;;;;;;;;;;;;23.16;55.08;97218.09;4211211;28;5711;-65
2023/09/02 07:47:47;;;;;;;;;;;;;;;23.16;54.82;97213.50;4212416;28;5696;-65
2023/09/02 07:49:50;;;;;;;;;;;;;;;23.19;54.87;97212.16;4214851;28;5771;-65
2023/09/02 07:51:52;;;;;;;;;;;;;;;23.18;54.80;97219.44;4210842;28;5699;-65
2023/09/02 07:53:55;;;;;;;;;;;;;;;23.19;54.39;97217.53;4216119;28;5104;-65
2023/09/02 07:55:58;;;;;;;;;;;;;;;23.16;54.66;97218.91;4206241;28;5700;-66
2023/09/02 07:58:01;;;;;;;;;;;;;;;23.17;54.37;97217.81;4202185;28;5805;-65
2023/09/02 08:00:07;;;;;;;;;;;;;;;23.18;54.74;97222.13;4210101;28;5547;-66
2023/09/02 08:02:10;;;;;;;;;;;;;;;23.19;54.46;97223.75;4210153;28;5752;-66
2023/09/02 08:04:13;;;;;;;;;;;;;;;23.21;54.09;97220.78;4209396;28;5636;-66
2023/09/02 08:06:16;;;;;;;;;;;;;;;23.22;53.89;97220.56;4207510;28;6324;-66
2023/09/02 08:08:19;;;;;;;;;;;;;;;23.22;53.84;97228.66;4199265;28;5781;-66
2023/09/02 08:10:22;;;;;;;;;;;;;;;23.23;54.02;97224.88;4208249;28;5612;-66
2023/09/02 08:12:24;;;;;;;;;;;;;;;23.23;53.96;97216.78;4209173;28;5817;-66
2023/09/02 08:14:27;;;;;;;;;;;;;;;23.26;53.64;97220.00;4216557;28;5733;-66
2023/09/02 08:16:31;;;;;;;;;;;;;;;23.26;53.49;97211.94;4208322;28;5706;-66
2023/09/02 08:18:33;;;;;;;;;;;;;;;23.29;53.77;97214.09;4211050;28;5720;-65
2023/09/02 08:20:36;;;;;;;;;;;;;;;23.28;53.36;97209.78;4205874;28;5714;-66
2023/09/02 08:22:39;;;;;;;;;;;;;;;23.28;53.82;97215.16;4201743;28;5752;-66
2023/09/02 08:24:42;;;;;;;;;;;;;;;23.28;53.59;97215.97;4212144;28;5620;-66
2023/09/02 08:26:45;;;;;;;;;;;;;;;23.30;53.33;97223.78;4215618;28;5722;-66
2023/09/02 08:28:48;;;;;;;;;;;;;;;23.31;53.57;97217.31;4215064;28;5889;-66
2023/09/02 08:30:50;;;;;;;;;;;;;;;23.31;52.96;97209.22;4208855;28;5629;-66
2023/09/02 08:32:54;;;;;;;;;;;;;;;23.31;52.89;97217.31;4216779;28;5612;-67
2023/09/02 08:34:57;;;;;;;;;;;;;;;;;;4216513;28;5672;-66
2023/09/02 08:37:00;;;;;;;;;;;;;;;23.32;52.86;97211.66;4212605;28;5803;-66
2023/09/02 08:39:02;;;;;;;;;;;;;;;23.33;52.72;97218.72;4210267;28;5085;-67
2023/09/02 08:41:06;;;;;;;;;;;;;;;23.34;52.73;97214.94;4213996;28;5818;-76
2023/09/02 08:43:09;;;;;;;;;;;;;;;23.35;52.64;97215.75;4214736;28;5751;-76
2023/09/02 08:45:13;;;;;;;;;;;;;;;23.37;52.38;97213.59;4207079;28;5608;-77
2023/09/02 08:47:19;;;;;;;;;;;;;;;23.37;52.78;97210.88;4211273;28;5609;-77
2023/09/02 08:49:24;;;;;;;;;;;;;;;23.38;52.33;97209.81;4213820;28;5613;-77
2023/09/02 08:51:28;;;;;;;;;;;;;;;23.37;52.48;97208.19;4212472;28;5821;-75
2023/09/02 08:53:33;;;;;;;;;;;;;;;23.38;52.11;97207.91;4209434;28;5811;-76
2023/09/02 08:55:36;;;;;;;;;;;;;;;23.40;52.45;97202.25;4217972;28;5775;-76
2023/09/02 08:57:40;;;;;;;;;;;;;;;23.42;52.22;97213.59;4215090;28;5791;-76
2023/09/02 08:59:43;;;;;;;;;;;;;;;23.43;52.05;97215.22;4213287;28;5819;-77
2023/09/02 09:01:46;;;;;;;;;;;;;;;23.45;52.14;97218.47;4197485;28;5757;-75
2023/09/02 09:03:53;;;;;;;;;;;;;;;23.45;52.02;97215.78;4210207;28;5609;-76
2023/09/02 09:05:59;;;;;;;;;;;;;;;23.46;51.79;97217.41;4207739;28;5802;-69
2023/09/02 09:08:03;;;;;;;;;;;;;;;23.47;51.69;97208.22;4213840;28;5609;-76
2023/09/02 09:10:10;;;;;;;;;;;;;;;23.49;51.86;97216.84;4212500;28;5720;-70
2023/09/02 09:12:13;;;;;;;;;;;;;;;23.49;51.97;97209.56;4214672;28;5609;-70
2023/09/02 09:14:22;;;;;;;;;;;;;;;23.48;52.00;97204.44;4212752;28;5688;-70
2023/09/02 09:16:31;;;;;;;;;;;;;;;23.50;51.62;97207.69;4211193;28;5774;-70
2023/09/02 09:18:34;;;;;;;;;;;;;;;23.50;51.38;97194.19;4208017;28;5625;-69
2023/09/02 09:20:37;;;;;;;;;;;;;;;23.52;51.37;97200.13;4207142;28;5857;-69
2023/09/02 09:22:40;;;;;;;;;;;;;;;23.52;51.30;97195.53;4214479;28;5677;-69
2023/09/02 09:24:43;;;;;;;;;;;;;;;23.53;51.36;97190.97;4206789;28;5713;-69
2023/09/02 09:26:49;;;;;;;;;;;;;;;23.55;51.27;97188.78;4209062;28;5850;-70
2023/09/02 09:28:52;;;;;;;;;;;;;;;23.58;50.94;97176.69;4208711;28;5712;-70
2023/09/02 09:30:55;;;;;;;;;;;;;;;23.59;51.49;97176.44;4214551;28;6473;-74
2023/09/02 09:32:58;;;;;;;;;;;;;;;23.61;51.48;97168.88;4216639;28;5763;-75
2023/09/02 09:35:01;;;;;;;;;;;;;;;23.64;51.39;97172.94;4209528;28;5618;-75
2023/09/02 09:37:03;;;;;;;;;;;;;;;23.66;51.21;97176.97;4202840;28;5785;-74
2023/09/02 09:39:09;;;;;;;;;;;;;;;23.67;51.20;97175.94;4209798;28;5691;-75
2023/09/02 09:41:11;;;;;;;;;;;;;;;23.70;50.93;97178.09;4209891;28;5695;-74
2023/09/02 09:43:16;;;;;;;;;;;;;;;23.71;50.80;97168.09;4209837;28;5687;-74
2023/09/02 09:45:20;;;;;;;;;;;;;;;23.71;50.93;97170.78;4209875;28;5696;-74
2023/09/02 09:47:23;;;;;;;;;;;;;;;23.72;50.71;97172.41;4216664;28;5605;-74
2023/09/02 09:49:27;;;;;;;;;;;;;;;23.73;50.85;97180.25;4209428;28;5707;-74
2023/09/02 09:51:30;;;;;;;;;;;;;;;23.74;51.12;97171.06;4215598;28;5605;-76
2023/09/02 09:53:45;;;;;;;;;;;;;;;23.76;50.69;97170.78;4213662;28;5612;-76
2023/09/02 09:55:49;;;;;;;;;;;;;;;23.77;50.49;97175.91;4205803;28;5622;-75
2023/09/02 09:57:53;;;;;;;;;;;;;;;23.80;51.02;97185.38;4209469;28;5692;-75
2023/09/02 09:59:57;;;;;;;;;;;;;;;23.80;51.04;97180.81;4211055;28;5700;-75
2023/09/02 10:02:00;;;;;;;;;;;;;;;23.81;50.77;97182.41;4204367;28;5691;-75
2023/09/02 10:04:07;;;;;;;;;;;;;;;23.81;50.53;97185.13;4210191;28;5628;-75
2023/09/02 10:06:10;;;;;;;;;;;;;;;23.83;50.82;97181.34;4201892;28;5628;-72
2023/09/02 10:08:15;;;;;;;;;;;;;;;23.84;50.55;97185.66;4210772;28;5687;-70
2023/09/02 10:10:28;;;;;;;;;;;;;;;23.83;50.42;97182.16;4203447;28;5827;-70
2023/09/02 10:12:34;;;;;;;;;;;;;;;23.84;50.21;97188.34;4211338;28;5653;-70
2023/09/02 10:14:40;;;;;;;;;;;;;;;23.87;50.28;97185.91;4215437;28;5620;-71
2023/09/02 10:16:44;;;;;;;;;;;;;;;23.88;50.31;97181.31;4211920;28;5757;-70
2023/09/02 10:18:48;;;;;;;;;;;;;;;23.87;50.14;97175.13;4212958;28;5731;-70
2023/09/02 10:20:51;;;;;;;;;;;;;;;23.90;50.71;97169.19;4219567;28;5737;-70
2023/09/02 10:22:54;;;;;;;;;;;;;;;23.92;50.44;97172.44;4214462;28;5722;-70
2023/09/02 10:25:15;;;;;;;;;;;;;;;23.95;50.47;97181.88;4209143;28;5614;-70
2023/09/02 10:27:23;;;;;;;;;;;;;;;23.96;50.21;97173.50;4211642;28;5702;-70
2023/09/02 10:29:32;;;;;;;;;;;;;;;23.98;50.34;97175.94;4211544;28;5789;-70
2023/09/02 10:31:40;;;;;;;;;;;;;;;24.00;50.22;97171.06;4211009;28;5776;-70
2023/09/02 10:33:46;;;;;;;;;;;;;;;24.02;49.58;97168.94;4211553;28;5702;-70
2023/09/02 10:35:57;;;;;;;;;;;;;;;24.02;49.86;97168.94;4211596;28;5842;-70
2023/09/02 10:38:05;;;;;;;;;;;;;;;24.00;49.60;97163.78;4217197;28;5613;-71
2023/09/02 10:40:10;;;;;;;;;;;;;;;24.02;50.03;97172.44;4212640;28;5636;-71
2023/09/02 10:42:16;;;;;;;;;;;;;;;24.04;49.77;97166.78;4211499;28;5640;-70
2023/09/02 10:44:20;;;;;;;;;;;;;;;24.07;49.66;97179.72;4211401;28;5831;-72
2023/09/02 10:46:26;;;;;;;;;;;;;;;24.07;49.38;97168.91;4211333;28;6474;-71
2023/09/02 10:48:29;;;;;;;;;;;;;;;24.08;49.38;97182.16;4211362;28;5770;-71
2023/09/02 10:50:33;;;;;;;;;;;;;;;24.10;48.58;97169.19;4211167;28;5815;-71
2023/09/02 10:52:36;;;;;;;;;;;;;;;24.11;49.15;97173.50;4214108;28;6388;-71
2023/09/02 10:55:00;;;;;;;;;;;;;;;24.13;48.66;97175.97;4203497;28;6336;-70
2023/09/02 10:57:13;;;;;;;;;;;;;;;24.14;48.59;97174.88;4213176;28;5698;-70
2023/09/02 10:59:29;;;;;;;;;;;;;;;24.15;48.59;97176.50;4208741;28;5602;-71
2023/09/02 11:01:51;;;;;;;;;;;;;;;24.16;48.87;97188.09;4216502;28;5605;-71
2023/09/02 11:03:55;;;;;;;;;;;;;;;24.18;48.62;97191.34;4211110;28;5623;-71
2023/09/02 11:06:06;;;;;;;;;;;;;;;24.17;48.37;97190.53;4213726;28;5638;-71
2023/09/02 11:08:40;;;;;;;;;;;;;;;24.19;48.65;97199.16;4219363;28;5636;-71
2023/09/02 11:10:54;;;;;;;;;;;;;;;24.19;48.63;97190.25;4211195;28;5631;-71
2023/09/02 11:13:08;;;;;;;;;;;;;;;24.20;48.79;97194.56;4217657;28;5601;-71
2023/09/02 11:15:18;;;;;;;;;;;;;;;24.20;48.87;97198.09;4207440;28;6325;-71
2023/09/02 11:17:29;;;;;;;;;;;;;;;24.19;48.57;97191.06;4212700;28;5602;-71
2023/09/02 11:19:55;;;;;;;;;;;;;;;24.21;48.51;97190.78;4213405;28;5712;-71
2023/09/02 11:21:59;;;;;;;;;;;;;;;24.22;48.90;97193.22;4212514;28;5756;-70
2023/09/02 11:24:14;;;;;;;;;;;;;;;24.23;48.33;97184.03;4209332;28;6378;-69
2023/09/02 11:26:18;;;;;;;;;;;;;;;24.24;48.75;97185.69;4217029;28;5843;-72
2023/09/02 11:28:26;;;;;;;;;;;;;;;24.24;48.13;97192.97;4203501;28;5641;-70
2023/09/02 11:30:31;;;;;;;;;;;;;;;24.25;48.31;97194.59;4216487;28;5791;-70
2023/09/02 11:32:44;;;;;;;;;;;;;;;24.26;48.02;97198.91;4212718;28;5728;-70
2023/09/02 11:34:47;;;;;;;;;;;;;;;24.27;48.21;97189.72;4206265;28;5646;-70
2023/09/02 11:36:51;;;;;;;;;;;;;;;24.28;48.08;97197.56;4204392;28;5528;-70
2023/09/02 11:38:55;;;;;;;;;;;;;;;24.29;47.74;97201.88;4210634;28;5635;-71
2023/09/02 11:40:58;;;;;;;;;;;;;;;24.30;47.44;97198.13;4208127;28;5735;-71
2023/09/02 11:43:02;;;;;;;;;;;;;;;24.32;47.44;97198.66;4210398;28;6309;-70
2023/09/02 11:45:05;;;;;;;;;;;;;;;24.33;47.30;97204.88;4192443;28;5813;-70
2023/09/02 11:47:08;;;;;;;;;;;;;;;24.34;47.20;97211.88;4210998;28;5625;-70
2023/09/02 11:49:13;;;;;;;;;;;;;;;24.33;47.11;97207.56;4206045;28;5548;-70
2023/09/02 11:51:17;;;;;;;;;;;;;;;24.36;47.24;97212.44;4209878;28;5712;-70
2023/09/02 11:53:20;;;;;;;;;;;;;;;24.36;47.04;97210.56;4210065;28;5759;-70
2023/09/02 11:55:24;;;;;;;;;;;;;;;24.35;46.80;97208.94;4209874;28;6299;-71
2023/09/02 11:57:25;;;;;;;;;;;;;;;24.37;47.01;97211.38;4210013;28;6351;-71
2023/09/02 11:59:28;;;;;;;;;;;;;;;24.37;46.72;97214.06;4214031;28;5630;-71
2023/09/02 12:01:32;;;;;;;;;;;;;;;24.37;46.79;97212.19;4209921;28;6443;-71
2023/09/02 12:03:35;;;;;;;;;;;;;;;24.39;46.49;97214.59;4212184;28;6341;-71
2023/09/02 12:05:46;;;;;;;;;;;;;;;24.41;46.33;97222.44;4206454;28;5803;-71
2023/09/02 12:07:50;;;;;;;;;;;;;;;24.43;46.80;97212.97;4210741;28;5664;-71
2023/09/02 12:09:54;;;;;;;;;;;;;;;24.46;46.45;97219.72;4213902;28;5601;-71
2023/09/02 12:11:58;;;;;;;;;;;;;;;24.46;46.81;97220.53;4211028;28;5694;-71
2023/09/02 12:14:01;;;;;;;;;;;;;;;24.48;46.93;97217.56;4208661;28;5786;-71
2023/09/02 12:16:03;;;;;;;;;;;;;;;24.50;47.03;97218.13;4206802;28;5708;-71
2023/09/02 12:18:07;;;;;;;;;;;;;;;24.51;46.63;97222.44;4210053;28;5694;-71
2023/09/02 12:20:12;;;;;;;;;;;;;;;24.53;46.98;97222.97;4215967;28;5751;-71
2023/09/02 12:22:15;;;;;;;;;;;;;;;24.55;46.85;97223.50;4200050;28;5668;-71
2023/09/02 12:24:20;;;;;;;;;;;;;;;24.56;46.93;97217.00;4200018;28;5707;-71
2023/09/02 12:26:24;;;;;;;;;;;;;;;24.56;47.26;97223.22;4208433;28;5685;-71
2023/09/02 12:28:29;;;;;;;;;;;;;;;24.57;47.39;97215.91;4209865;28;5695;-71
2023/09/02 12:30:32;;;;;;;;;;;;;;;24.57;47.11;97222.13;4207549;28;5843;-71
2023/09/02 12:32:35;;;;;;;;;;;;;;;24.60;47.46;97220.81;4214125;28;5095;-71
2023/09/02 12:34:40;;;;;;;;;;;;;;;24.61;47.29;97217.00;4208202;28;5687;-71
2023/09/02 12:36:43;;;;;;;;;;;;;;;24.61;47.58;97215.13;4209968;28;5700;-71
2023/09/02 12:38:51;;;;;;;;;;;;;;;24.63;47.46;97215.66;4205304;28;5618;-71
2023/09/02 12:40:55;;;;;;;;;;;;;;;24.65;47.49;97215.38;4212389;28;5700;-72
2023/09/02 12:42:58;;;;;;;;;;;;;;;24.65;47.65;97221.59;4215432;28;5636;-72
2023/09/02 12:45:04;;;;;;;;;;;;;;;24.67;47.61;97230.22;4209472;28;5616;-72
2023/09/02 12:47:09;;;;;;;;;;;;;;;24.69;47.47;97230.00;4212706;28;5709;-73
2023/09/02 12:49:14;;;;;;;;;;;;;;;24.71;47.74;97227.00;4211823;28;5948;-73
2023/09/02 12:51:27;;;;;;;;;;;;;;;24.71;47.98;97227.81;4204271;28;5694;-73
2023/09/02 12:53:30;;;;;;;;;;;;;;;24.72;48.25;97226.72;4208116;28;5855;-72
2023/09/02 12:55:40;;;;;;;;;;;;;;;24.73;48.07;97228.34;4211364;28;5774;-72
2023/09/02 12:57:43;;;;;;;;;;;;;;;24.75;48.52;97228.88;4206409;28;5621;-72
2023/09/02 12:59:46;;;;;;;;;;;;;;;24.76;48.25;97222.38;4208310;28;5720;-73
2023/09/02 13:01:51;;;;;;;;;;;;;;;24.76;48.27;97230.50;4206834;28;5605;-69
2023/09/02 13:03:55;;;;;;;;;;;;;;;24.78;48.31;97228.31;4201903;28;5787;-70
2023/09/02 13:05:58;;;;;;;;;;;;;;;24.79;48.57;97229.94;4208844;28;5634;-71
2023/09/02 13:08:01;;;;;;;;;;;;;;;24.81;48.71;97222.41;4205992;28;5731;-72
2023/09/02 13:10:05;;;;;;;;;;;;;;;24.82;48.74;97223.19;4206479;28;5616;-72
2023/09/02 13:12:09;;;;;;;;;;;;;;;24.83;48.49;97220.22;4210460;28;5744;-72
2023/09/02 13:14:14;;;;;;;;;;;;;;;24.84;48.71;97223.72;4212108;28;5621;-70
2023/09/02 13:16:17;;;;;;;;;;;;;;;24.83;48.69;97217.50;4210081;28;5707;-71
2023/09/02 13:18:20;;;;;;;;;;;;;;;24.85;48.96;97219.94;4205770;28;6678;-71
2023/09/02 13:20:23;;;;;;;;;;;;;;;24.86;48.82;97213.44;4188013;28;5680;-69
2023/09/02 13:22:26;;;;;;;;;;;;;;;24.87;48.58;97204.25;4199406;28;5753;-69
2023/09/02 13:24:30;;;;;;;;;;;;;;;24.86;48.56;97208.84;4206734;28;5788;-69
2023/09/02 13:26:33;;;;;;;;;;;;;;;24.87;48.66;97205.06;4209338;28;5694;-71
2023/09/02 13:28:38;;;;;;;;;;;;;;;24.88;48.50;97208.56;4209149;28;5734;-70
2023/09/02 13:30:40;;;;;;;;;;;;;;;24.89;48.36;97212.88;4204391;28;5617;-70
2023/09/02 13:32:44;;;;;;;;;;;;;;;24.88;48.11;97206.69;4208932;28;5624;-71
2023/09/02 13:34:46;;;;;;;;;;;;;;;24.89;47.94;97205.59;4209230;28;5893;-71
2023/09/02 13:36:49;;;;;;;;;;;;;;;24.91;47.92;97210.72;4207464;28;5742;-70
2023/09/02 13:38:51;;;;;;;;;;;;;;;24.92;47.64;97213.16;4210719;28;6523;-70
2023/09/02 13:40:54;;;;;;;;;;;;;;;24.96;47.82;97213.41;4206629;28;6669;-75
2023/09/02 13:42:57;;;;;;;;;;;;;;;24.94;47.80;97213.69;4210515;28;5716;-74
2023/09/02 13:45:10;;;;;;;;;;;;;;;24.95;47.39;97207.22;4212275;28;5616;-73
2023/09/02 13:47:15;;;;;;;;;;;;;;;24.96;47.52;97211.53;4213017;28;6319;-72
2023/09/02 13:49:17;;;;;;;;;;;;;;;24.99;47.30;97210.16;4208334;28;5929;-72
2023/09/02 13:51:22;;;;;;;;;;;;;;;25.01;47.20;97205.31;4212639;28;5654;-73
2023/09/02 13:53:26;;;;;;;;;;;;;;;25.03;47.43;97205.03;4208763;28;6829;-72
2023/09/02 13:55:37;;;;;;;;;;;;;;;25.02;47.38;97203.41;4208929;28;6746;-74
2023/09/02 13:57:40;;;;;;;;;;;;;;;25.02;47.28;97206.13;4210963;28;5764;-71
2023/09/02 13:59:43;;;;;;;;;;;;;;;25.01;47.28;97204.47;4212097;28;5688;-72
2023/09/02 14:01:47;;;;;;;;;;;;;;;25.02;47.13;97196.09;4214508;28;5714;-73
2023/09/02 14:03:51;;;;;;;;;;;;;;;25.02;47.09;97198.00;4214332;28;5613;-73
2023/09/02 14:05:56;;;;;;;;;;;;;;;25.02;47.16;97198.00;4210094;28;5715;-72
2023/09/02 14:08:01;;;;;;;;;;;;;;;25.03;47.16;97203.16;4210504;28;5830;-73
2023/09/02 14:10:09;;;;;;;;;;;;;;;25.03;47.10;97191.50;4218059;28;5641;-71
2023/09/02 14:12:16;;;;;;;;;;;;;;;25.04;46.60;97182.34;4219710;28;5752;-71
2023/09/02 14:14:21;;;;;;;;;;;;;;;25.07;46.38;97179.06;4210867;28;5683;-72
2023/09/02 14:16:23;;;;;;;;;;;;;;;25.12;46.44;97187.16;4217161;28;5617;-71
2023/09/02 14:18:28;;;;;;;;;;;;;;;25.15;46.16;97178.50;4210094;28;5820;-71
2023/09/02 14:20:30;;;;;;;;;;;;;;;25.17;46.08;97170.91;4210705;28;5697;-70
2023/09/02 14:22:33;;;;;;;;;;;;;;;25.19;45.91;97179.56;4207429;28;6428;-71
2023/09/02 14:24:36;;;;;;;;;;;;;;;25.23;45.82;97165.19;4212271;28;6449;-69
2023/09/02 14:26:42;;;;;;;;;;;;;;;25.32;45.60;97162.72;4216233;28;5720;-68
2023/09/02 14:28:45;;;;;;;;;;;;;;;25.32;45.72;97165.41;4210048;28;5756;-69
2023/09/02 14:30:48;;;;;;;;;;;;;;;25.33;45.45;97164.34;4211552;28;5699;-69
2023/09/02 14:32:51;;;;;;;;;;;;;;;25.34;45.27;97163.25;4212395;28;5709;-69
2023/09/02 14:34:55;;;;;;;;;;;;;;;25.36;44.98;97161.06;4206045;28;5609;-69
2023/09/02 14:36:59;;;;;;;;;;;;;;;25.38;44.88;97158.91;4212207;28;5734;-68
2023/09/02 14:39:02;;;;;;;;;;;;;;;25.39;44.70;97147.00;4212648;28;5612;-69
2023/09/02 14:41:05;;;;;;;;;;;;;;;25.40;44.90;97151.31;4212370;28;5743;-69
2023/09/02 14:43:08;;;;;;;;;;;;;;;25.39;44.93;97149.69;4217713;28;5637;-69
2023/09/02 14:45:11;;;;;;;;;;;;;;;25.38;44.66;97147.28;4214778;28;6578;-69
2023/09/02 14:47:13;;;;;;;;;;;;;;;25.35;45.09;97145.91;4209160;28;5625;-69
2023/09/02 14:49:17;;;;;;;;;;;;;;;25.34;45.06;97144.28;4209714;28;5892;-69
2023/09/02 14:51:21;;;;;;;;;;;;;;;25.34;45.13;97147.00;4211158;28;5948;-69
2023/09/02 14:53:24;;;;;;;;;;;;;;;25.34;45.15;97143.50;4215044;28;5715;-69
2023/09/02 14:55:28;;;;;;;;;;;;;;;25.33;45.35;97136.47;4216868;28;5834;-69
2023/09/02 14:57:34;;;;;;;;;;;;;;;25.33;45.07;97137.28;4209414;28;5702;-69
2023/09/02 14:59:37;;;;;;;;;;;;;;;25.36;45.07;97142.13;4203117;28;7695;-70
2023/09/02 15:01:40;;;;;;;;;;;;;;;25.38;44.78;97136.44;4209301;28;5635;-69
2023/09/02 15:03:44;;;;;;;;;;;;;;;25.45;44.45;97129.63;4210019;28;5842;-69
2023/09/02 15:05:48;;;;;;;;;;;;;;;25.45;44.41;97129.63;4204602;28;5702;-69
2023/09/02 15:07:57;;;;;;;;;;;;;;;25.47;44.68;97129.34;4209408;28;5728;-69
2023/09/02 15:09:59;;;;;;;;;;;;;;;25.51;44.70;97125.00;4210361;28;5707;-69
2023/09/02 15:12:04;;;;;;;;;;;;;;;25.53;44.82;97131.75;4204397;28;5683;-69
2023/09/02 15:14:07;;;;;;;;;;;;;;;25.57;44.74;97125.75;4212615;28;6938;-64
2023/09/02 15:16:10;;;;;;;;;;;;;;;25.60;45.01;97123.31;4213534;28;5792;-64
2023/09/02 15:18:22;;;;;;;;;;;;;;;25.63;44.61;97124.66;4205783;28;6077;-70
2023/09/02 15:20:27;;;;;;;;;;;;;;;25.66;44.57;97127.59;4209372;28;5633;-70
2023/09/02 15:22:33;;;;;;;;;;;;;;;25.68;44.46;97124.59;4214035;28;7218;-69
2023/09/02 15:24:37;;;;;;;;;;;;;;;25.71;44.77;97121.34;4210852;28;5823;-70
2023/09/02 15:26:40;;;;;;;;;;;;;;;25.70;44.54;97117.84;4207011;28;5786;-70
2023/09/02 15:28:44;;;;;;;;;;;;;;;25.71;44.46;97115.94;4215421;28;7161;-71
2023/09/02 15:30:46;;;;;;;;;;;;;;;25.70;44.88;97117.84;4212099;28;5740;-71
2023/09/02 15:32:55;;;;;;;;;;;;;;;25.71;44.72;97119.47;4213632;28;6433;-71
2023/09/02 15:34:58;;;;;;;;;;;;;;;25.71;44.97;97122.19;4213490;28;5822;-70
2023/09/02 15:37:01;;;;;;;;;;;;;;;25.69;44.99;97116.22;4208609;28;5631;-69
2023/09/02 15:39:09;;;;;;;;;;;;;;;25.69;45.16;97123.50;4209903;28;5716;-69
2023/09/02 15:41:13;;;;;;;;;;;;;;;25.71;44.99;97124.06;4212288;28;5609;-68
2023/09/02 15:43:16;;;;;;;;;;;;;;;25.71;44.98;97127.59;4201728;28;5631;-69
2023/09/02 15:45:19;;;;;;;;;;;;;;;25.71;45.15;97124.06;4205827;28;5789;-69
2023/09/02 15:47:25;;;;;;;;;;;;;;;25.67;45.02;97115.66;4213827;28;6417;-68
2023/09/02 15:49:28;;;;;;;;;;;;;;;25.67;45.39;97125.69;4209286;28;5636;-70
2023/09/02 15:51:31;;;;;;;;;;;;;;;25.67;45.39;97128.41;4211550;28;5683;-70
2023/09/02 15:53:34;;;;;;;;;;;;;;;25.66;45.44;97129.50;4211024;28;5619;-70
2023/09/02 15:55:37;;;;;;;;;;;;;;;25.64;45.11;97126.25;4211277;28;6176;-70
2023/09/02 15:57:41;;;;;;;;;;;;;;;25.64;45.52;97127.06;4210439;28;5723;-71
2023/09/02 15:59:44;;;;;;;;;;;;;;;25.66;45.40;97132.19;4206975;28;5696;-71
2023/09/02 16:01:46;;;;;;;;;;;;;;;25.66;45.50;97130.28;4207576;28;5790;-69
2023/09/02 16:03:49;;;;;;;;;;;;;;;25.67;45.21;97128.41;4212835;28;5714;-71
2023/09/02 16:05:52;;;;;;;;;;;;;;;25.67;45.38;97125.69;4207095;28;5786;-64
2023/09/02 16:07:55;;;;;;;;;;;;;;;25.66;45.32;97132.19;4206223;28;5823;-64
2023/09/02 16:09:58;;;;;;;;;;;;;;;25.69;45.47;97137.03;4211909;28;7220;-64
2023/09/02 16:12:01;;;;;;;;;;;;;;;25.69;45.28;97129.75;4209907;28;6389;-65
2023/09/02 16:14:05;;;;;;;;;;;;;;;25.69;45.33;97139.75;4216119;28;5711;-64
2023/09/02 16:16:08;;;;;;;;;;;;;;;25.69;45.39;97139.75;4216399;28;5630;-64
2023/09/02 16:18:11;;;;;;;;;;;;;;;25.68;45.54;97138.94;4209100;28;5824;-64
2023/09/02 16:20:14;;;;;;;;;;;;;;;25.67;45.45;97147.34;4200057;28;5144;-64
2023/09/02 16:22:17;;;;;;;;;;;;;;;25.67;45.25;97152.75;4208454;28;5640;-64
2023/09/02 16:24:20;;;;;;;;;;;;;;;25.66;45.29;97151.16;4200486;28;5727;-64
2023/09/02 16:26:22;;;;;;;;;;;;;;;25.65;45.26;97149.53;4215889;28;5708;-65
2023/09/02 16:28:25;;;;;;;;;;;;;;;25.66;45.27;97156.56;4208357;28;5888;-65